Time;durP1;ratioP1;P1;durP2;ratioP2;P2;SDS_P1;SDS_P2;PMS_P1;PMS_P2;Temp;Humidity;BMP_temperature;BMP_pressure;BME280_temperature;BME280_humidity;BME280_pressure;Samples;Min_cycle;Max_cycle;Signal;HPM_P1;HPM_P2
2023/09/22 00:00:10;;;;;;;8.05;4.65;;;15.70;99.00;;;;;;4987083;28;20117;-73
2023/09/22 00:02:40;;;;;;;8.07;5.10;;;15.80;99.10;;;;;;4991286;28;20053;-73
2023/09/22 00:05:10;;;;;;;7.90;4.85;;;15.70;99.00;;;;;;4989119;28;20046;-73
2023/09/22 00:07:37;;;;;;;9.23;5.53;;;15.70;99.10;;;;;;4983164;28;20533;-73
2023/09/22 00:10:04;;;;;;;8.45;6.07;;;15.70;99.10;;;;;;4991067;28;20106;-73
2023/09/22 00:12:31;;;;;;;8.60;6.03;;;15.70;99.10;;;;;;4990783;28;20041;-73
2023/09/22 00:15:00;;;;;;;10.13;6.60;;;15.70;99.10;;;;;;4991851;28;20037;-75
2023/09/22 00:17:27;;;;;;;9.85;6.45;;;15.70;99.10;;;;;;4986866;28;20026;-73
2023/09/22 00:19:53;;;;;;;8.45;6.15;;;15.70;99.10;;;;;;4973146;28;20022;-74
2023/09/22 00:22:18;;;;;;;11.25;6.55;;;15.80;99.10;;;;;;4990605;28;20100;-73
2023/09/22 00:24:44;;;;;;;11.55;7.22;;;15.70;99.10;;;;;;4995149;28;20049;-72
2023/09/22 00:27:10;;;;;;;9.35;6.80;;;15.80;99.20;;;;;;4991755;28;20066;-73
2023/09/22 00:29:36;;;;;;;11.75;7.88;;;15.80;99.20;;;;;;4988496;28;20507;-72
2023/09/22 00:32:02;;;;;;;10.98;7.85;;;15.70;99.20;;;;;;4987357;28;20140;-73
2023/09/22 00:34:28;;;;;;;12.15;8.45;;;15.80;99.10;;;;;;4989767;28;20435;-73
2023/09/22 00:36:56;;;;;;;12.93;8.90;;;15.70;99.10;;;;;;4987559;28;20105;-73
2023/09/22 00:39:22;;;;;;;13.60;8.55;;;15.80;99.20;;;;;;4991617;28;20038;-73
2023/09/22 00:41:47;;;;;;;13.20;8.55;;;15.70;99.10;;;;;;4990431;28;20035;-73
2023/09/22 00:44:13;;;;;;;12.15;8.73;;;15.70;99.10;;;;;;4990485;28;20467;-73
2023/09/22 00:46:39;;;;;;;13.82;8.93;;;15.70;99.10;;;;;;4989789;28;20038;-73
2023/09/22 00:49:06;;;;;;;14.05;9.57;;;15.70;99.20;;;;;;4972430;28;20483;-73
2023/09/22 00:51:32;;;;;;;12.57;9.13;;;15.80;99.20;;;;;;4989075;28;20129;-73
2023/09/22 00:53:59;;;;;;;14.38;9.82;;;15.70;99.10;;;;;;4989520;28;20117;-73
2023/09/22 00:56:25;;;;;;;13.00;9.45;;;15.70;99.20;;;;;;4992570;28;20030;-73
2023/09/22 00:58:51;;;;;;;13.20;9.30;;;15.70;99.20;;;;;;4988005;28;20053;-73
2023/09/22 01:01:18;;;;;;;12.82;9.35;;;15.70;99.10;;;;;;4973874;28;20454;-75
2023/09/22 01:03:44;;;;;;;12.82;8.85;;;15.70;99.20;;;;;;4988537;28;20030;-72
2023/09/22 01:06:09;;;;;;;12.85;9.57;;;15.70;99.20;;;;;;4990045;28;20042;-74
2023/09/22 01:08:35;;;;;;;14.73;9.50;;;15.60;99.20;;;;;;4985071;28;20076;-72
2023/09/22 01:11:01;;;;;;;12.38;9.10;;;15.60;99.20;;;;;;4989362;28;20402;-73
2023/09/22 01:13:27;;;;;;;12.13;9.60;;;15.60;99.20;;;;;;4990323;28;20559;-73
2023/09/22 01:15:53;;;;;;;13.95;9.15;;;15.60;99.20;;;;;;4990846;28;20093;-73
2023/09/22 01:18:18;;;;;;;12.60;8.68;;;15.60;99.10;;;;;;4989176;28;20050;-72
2023/09/22 01:20:44;;;;;;;12.80;9.05;;;15.60;99.10;;;;;;4989799;28;20062;-73
2023/09/22 01:23:14;;;;;;;12.07;9.35;;;15.60;99.10;;;;;;4989375;28;20034;-72
2023/09/22 01:25:41;;;;;;;11.32;8.38;;;15.60;99.10;;;;;;4990383;28;20054;-73
2023/09/22 01:28:08;;;;;;;14.82;8.80;;;15.50;99.10;;;;;;4971122;28;20038;-73
2023/09/22 01:30:34;;;;;;;12.38;8.93;;;15.60;99.00;;;;;;4988895;28;20383;-72
2023/09/22 01:33:02;;;;;;;13.25;8.80;;;15.50;99.00;;;;;;4981149;28;20081;-74
2023/09/22 01:35:29;;;;;;;12.82;8.30;;;15.50;99.00;;;;;;4987802;28;20030;-73
2023/09/22 01:38:02;;;;;;;12.20;8.63;;;15.50;99.00;;;;;;4990137;28;20034;-72
2023/09/22 01:40:28;;;;;;;10.73;7.85;;;15.40;98.90;;;;;;4973929;28;20050;-73
2023/09/22 01:42:53;;;;;;;12.75;8.48;;;15.40;99.00;;;;;;4989393;28;20018;-72
2023/09/22 01:45:19;;;;;;;12.15;8.45;;;15.30;98.90;;;;;;4988064;28;20026;-73
2023/09/22 01:47:44;;;;;;;10.27;7.15;;;15.20;99.00;;;;;;4990739;28;20094;-73
2023/09/22 01:50:10;;;;;;;10.05;7.50;;;15.10;99.00;;;;;;4983456;28;20041;-73
2023/09/22 01:52:37;;;;;;;9.45;7.28;;;15.10;99.00;;;;;;4984027;28;20038;-72
2023/09/22 01:55:04;;;;;;;12.20;8.18;;;15.00;99.00;;;;;;4979223;28;20034;-72
2023/09/22 01:57:30;;;;;;;10.45;7.45;;;15.00;99.00;;;;;;4986298;28;20041;-72
2023/09/22 01:59:55;;;;;;;12.02;8.15;;;15.00;99.10;;;;;;4990272;28;20022;-73
2023/09/22 02:02:20;;;;;;;13.50;8.18;;;15.00;99.10;;;;;;4989719;28;20042;-73
2023/09/22 02:04:46;;;;;;;10.90;7.93;;;15.00;99.10;;;;;;4984968;28;20097;-72
2023/09/22 02:07:11;;;;;;;13.70;8.73;;;14.90;99.10;;;;;;4992324;28;20517;-73
2023/09/22 02:09:37;;;;;;;11.82;8.27;;;14.90;99.20;;;;;;4975493;28;20057;-73
2023/09/22 02:12:02;;;;;;;11.98;7.97;;;14.90;99.10;;;;;;4992822;28;20030;-72
2023/09/22 02:14:28;;;;;;;11.75;8.48;;;14.80;99.20;;;;;;4982334;28;20070;-74
2023/09/22 02:16:54;;;;;;;11.38;8.40;;;14.80;99.20;;;;;;4984278;28;20142;-72
2023/09/22 02:19:20;;;;;;;12.07;7.90;;;14.80;99.10;;;;;;4988442;28;20415;-74
2023/09/22 02:21:46;;;;;;;11.20;8.23;;;14.70;99.10;;;;;;4990276;28;20034;-72
2023/09/22 02:24:11;;;;;;;13.25;7.93;;;14.70;99.10;;;;;;4993990;28;20092;-74
2023/09/22 02:26:36;;;;;;;12.38;8.32;;;14.70;99.20;;;;;;4992115;28;20046;-72
2023/09/22 02:29:02;;;;;;;11.32;7.45;;;14.70;99.20;;;;;;4992570;28;20038;-73
2023/09/22 02:31:28;;;;;;;12.32;7.68;;;14.60;99.20;;;;;;4988533;28;20479;-73
2023/09/22 02:33:53;;;;;;;11.25;8.07;;;14.60;99.20;;;;;;4985838;28;20038;-72
2023/09/22 02:36:19;;;;;;;14.07;7.80;;;14.60;99.30;;;;;;4982845;28;20042;-73
2023/09/22 02:38:45;;;;;;;12.25;7.93;;;14.50;99.20;;;;;;4990770;28;20483;-74
2023/09/22 02:41:14;;;;;;;12.68;8.23;;;14.50;99.20;;;;;;4991551;28;20065;-73
2023/09/22 02:43:39;;;;;;;10.02;6.70;;;14.50;99.20;;;;;;4986513;28;20037;-73
2023/09/22 02:46:05;;;;;;;11.65;7.90;;;14.50;99.10;;;;;;4993185;28;20042;-72
2023/09/22 02:48:31;;;;;;;13.10;7.90;;;14.60;99.20;;;;;;4986505;28;20038;-72
2023/09/22 02:50:56;;;;;;;10.15;7.18;;;14.50;99.10;;;;;;4981972;28;20146;-73
2023/09/22 02:53:22;;;;;;;10.32;7.15;;;14.50;99.10;;;;;;4991152;28;20062;-73
2023/09/22 02:55:47;;;;;;;11.98;7.40;;;14.50;99.10;;;;;;4994033;28;20045;-73
2023/09/22 02:58:14;;;;;;;11.45;7.97;;;14.50;99.00;;;;;;4990291;28;20494;-72
2023/09/22 03:00:43;;;;;;;10.75;7.70;;;14.50;98.90;;;;;;4986523;28;20065;-72
2023/09/22 03:03:10;;;;;;;10.57;6.95;;;14.50;99.00;;;;;;4983136;28;20038;-73
2023/09/22 03:05:36;;;;;;;11.30;7.22;;;14.50;99.00;;;;;;4996606;28;20033;-72
2023/09/22 03:08:04;;;;;;;11.57;7.28;;;14.50;99.00;;;;;;4988522;28;20030;-72
2023/09/22 03:10:30;;;;;;;13.43;7.15;;;14.50;99.10;;;;;;4981723;28;20030;-73
2023/09/22 03:12:55;;;;;;;12.13;7.97;;;14.50;99.00;;;;;;4995351;28;20045;-73
2023/09/22 03:15:21;;;;;;;15.70;8.20;;;14.50;99.00;;;;;;4987638;28;20038;-72
2023/09/22 03:17:46;;;;;;;13.23;8.15;;;14.60;99.00;;;;;;4986441;28;20049;-72
2023/09/22 03:20:12;;;;;;;13.75;9.20;;;14.60;98.90;;;;;;4985082;28;20471;-73
2023/09/22 03:22:38;;;;;;;15.27;8.10;;;14.60;98.90;;;;;;4985333;28;20057;-74
2023/09/22 03:25:04;;;;;;;14.00;8.80;;;14.60;98.90;;;;;;4987927;28;20080;-73
2023/09/22 03:27:36;;;;;;;12.45;7.38;;;14.60;98.90;;;;;;4988074;28;20038;-73
2023/09/22 03:30:06;;;;;;;12.88;8.13;;;14.60;98.90;;;;;;4990474;28;20093;-74
2023/09/22 03:32:32;;;;;;;14.20;8.75;;;14.60;98.90;;;;;;4983038;28;20031;-72
2023/09/22 03:34:58;;;;;;;14.48;8.77;;;14.60;98.90;;;;;;4983331;28;20036;-72
2023/09/22 03:37:28;;;;;;;15.55;9.75;;;14.60;98.90;;;;;;4989410;28;20030;-72
2023/09/22 03:39:55;;;;;;;15.90;9.57;;;14.60;99.00;;;;;;4990950;28;20081;-73
2023/09/22 03:42:20;;;;;;;14.70;9.57;;;14.60;98.80;;;;;;4988546;28;20260;-72
2023/09/22 03:44:47;;;;;;;15.20;9.65;;;14.70;98.90;;;;;;4985374;28;20033;-72
2023/09/22 03:47:12;;;;;;;15.88;9.85;;;14.70;98.80;;;;;;4982191;28;20565;-72
2023/09/22 03:49:38;;;;;;;17.92;10.38;;;14.70;98.80;;;;;;4988100;28;20054;-73
2023/09/22 03:52:04;;;;;;;16.70;10.27;;;14.70;98.90;;;;;;4991355;28;20535;-72
2023/09/22 03:54:29;;;;;;;17.23;11.05;;;14.80;98.90;;;;;;4996100;28;20026;-72
2023/09/22 03:56:56;;;;;;;19.05;12.63;;;14.70;98.80;;;;;;4999104;28;20487;-73
2023/09/22 03:59:21;;;;;;;19.42;12.43;;;14.70;98.70;;;;;;4974511;28;20386;-73
2023/09/22 04:01:47;;;;;;;17.10;11.43;;;14.70;98.70;;;;;;4984471;28;20026;-73
2023/09/22 04:04:13;;;;;;;17.63;11.63;;;14.70;98.50;;;;;;4990023;28;20368;-73
2023/09/22 04:06:39;;;;;;;18.75;11.55;;;14.70;98.50;;;;;;4989906;28;20026;-73
2023/09/22 04:09:04;;;;;;;20.30;12.48;;;14.70;98.30;;;;;;4993147;28;20038;-72
2023/09/22 04:11:30;;;;;;;19.70;12.77;;;14.70;98.20;;;;;;4992421;28;20085;-73
2023/09/22 04:13:55;;;;;;;17.63;12.15;;;14.70;98.20;;;;;;4990450;28;20041;-73
2023/09/22 04:16:21;;;;;;;20.17;12.45;;;14.70;98.30;;;;;;4982927;28;20096;-73
2023/09/22 04:18:46;;;;;;;19.70;11.98;;;14.70;98.00;;;;;;4986416;28;20131;-73
2023/09/22 04:21:12;;;;;;;19.02;11.68;;;14.70;98.10;;;;;;4995367;28;20042;-72
2023/09/22 04:23:45;;;;;;;17.02;11.52;;;14.70;98.10;;;;;;4989533;28;20030;-72
2023/09/22 04:26:11;;;;;;;15.13;10.82;;;14.60;98.20;;;;;;4952247;28;20142;-72
2023/09/22 04:28:36;;;;;;;16.90;11.35;;;14.60;98.10;;;;;;4946754;28;20032;-67
2023/09/22 04:31:02;;;;;;;17.75;11.48;;;14.60;98.10;;;;;;4948474;28;20035;-68
2023/09/22 04:33:28;;;;;;;21.40;12.00;;;14.60;98.10;;;;;;4947543;28;20028;-69
2023/09/22 04:35:53;;;;;;;14.77;10.63;;;14.50;98.10;;;;;;4949974;28;20485;-67
2023/09/22 04:38:19;;;;;;;18.30;11.82;;;14.50;98.10;;;;;;4947237;28;21466;-67
2023/09/22 04:40:45;;;;;;;19.20;11.68;;;14.50;98.20;;;;;;4949938;28;20039;-67
2023/09/22 04:43:12;;;;;;;21.80;11.18;;;14.30;98.30;;;;;;4947397;28;20030;-67
2023/09/22 04:45:42;;;;;;;18.00;11.68;;;14.30;98.40;;;;;;4942080;28;20698;-68
2023/09/22 04:48:08;;;;;;;18.92;11.70;;;14.30;98.50;;;;;;4943493;28;20480;-68
2023/09/22 04:50:34;;;;;;;22.33;11.85;;;14.30;98.70;;;;;;4944664;28;20070;-68
2023/09/22 04:53:00;;;;;;;19.70;13.02;;;14.30;98.80;;;;;;4939396;28;20063;-71
2023/09/22 04:55:29;;;;;;;18.95;12.27;;;14.30;98.70;;;;;;4948865;28;20028;-67
2023/09/22 04:57:55;;;;;;;20.58;12.77;;;14.30;98.70;;;;;;4946360;28;20480;-68
2023/09/22 05:00:24;;;;;;;21.17;13.23;;;14.20;98.60;;;;;;4948171;28;20071;-68
2023/09/22 05:02:51;;;;;;;20.10;13.10;;;14.20;98.60;;;;;;4945400;28;20368;-67
2023/09/22 05:05:18;;;;;;;19.98;11.95;;;14.10;98.70;;;;;;4950060;28;20042;-67
2023/09/22 05:07:44;;;;;;;19.08;12.10;;;14.10;98.80;;;;;;4952183;28;20038;-67
2023/09/22 05:10:10;;;;;;;22.35;13.30;;;14.10;98.70;;;;;;4947539;28;20119;-68
2023/09/22 05:12:35;;;;;;;20.13;12.50;;;14.00;98.70;;;;;;4950579;28;20075;-67
2023/09/22 05:15:02;;;;;;;19.23;12.15;;;14.00;98.70;;;;;;4947388;28;20054;-67
2023/09/22 05:17:28;;;;;;;24.15;12.95;;;14.00;98.80;;;;;;4941465;28;20066;-68
2023/09/22 05:19:53;;;;;;;19.80;11.98;;;13.90;98.80;;;;;;4943221;28;20051;-68
2023/09/22 05:22:20;;;;;;;18.98;11.93;;;13.90;98.80;;;;;;4941125;28;20028;-68
2023/09/22 05:24:46;;;;;;;19.45;12.00;;;13.80;98.80;;;;;;4966471;28;20053;-68
2023/09/22 05:27:11;;;;;;;18.42;12.02;;;13.80;98.90;;;;;;4971968;28;20124;-67
2023/09/22 05:29:37;;;;;;;23.70;12.35;;;13.80;98.90;;;;;;4989297;28;20026;-67
2023/09/22 05:32:03;;;;;;;22.40;12.18;;;13.80;99.00;;;;;;4986334;28;20093;-67
2023/09/22 05:34:28;;;;;;;21.45;12.70;;;13.80;99.00;;;;;;4986883;28;20077;-68
2023/09/22 05:36:54;;;;;;;21.08;12.73;;;13.80;99.10;;;;;;4991981;28;20046;-68
2023/09/22 05:39:20;;;;;;;21.05;12.40;;;13.80;99.10;;;;;;4990341;28;20101;-67
2023/09/22 05:41:49;;;;;;;25.38;12.75;;;13.80;99.10;;;;;;4982087;28;20034;-68
2023/09/22 05:44:17;;;;;;;21.42;13.02;;;13.80;99.20;;;;;;4983247;28;20042;-68
2023/09/22 05:46:43;;;;;;;24.45;13.18;;;13.90;99.20;;;;;;4986832;28;20041;-67
2023/09/22 05:49:14;;;;;;;19.92;12.73;;;13.90;99.10;;;;;;4986998;28;20022;-67
2023/09/22 05:51:42;;;;;;;19.42;12.25;;;13.90;98.90;;;;;;4990495;28;20053;-67
2023/09/22 05:54:08;;;;;;;19.70;12.38;;;13.90;98.90;;;;;;4988472;28;20049;-68
2023/09/22 05:56:35;;;;;;;19.02;11.50;;;14.00;98.90;;;;;;4992572;28;20467;-68
2023/09/22 05:59:00;;;;;;;25.52;13.15;;;14.10;98.80;;;;;;4989865;28;20031;-69
2023/09/22 06:01:27;;;;;;;19.23;11.27;;;14.20;98.80;;;;;;4983679;28;20042;-68
2023/09/22 06:03:53;;;;;;;16.98;11.48;;;14.20;98.20;;;;;;4973007;28;20027;-68
2023/09/22 06:06:19;;;;;;;19.50;11.93;;;14.30;98.10;;;;;;4990697;28;20031;-67
2023/09/22 06:08:45;;;;;;;21.83;10.70;;;14.40;98.00;;;;;;4989855;28;20445;-67
2023/09/22 06:11:11;;;;;;;17.70;10.23;;;14.40;97.70;;;;;;4991806;28;20030;-68
2023/09/22 06:13:38;;;;;;;16.98;10.25;;;14.30;97.50;;;;;;4992229;28;20069;-67
2023/09/22 06:16:04;;;;;;;15.05;8.48;;;14.40;97.70;;;;;;4981856;28;20026;-67
2023/09/22 06:18:33;;;;;;;13.40;8.93;;;14.40;97.60;;;;;;4986692;28;20042;-67
2023/09/22 06:21:00;;;;;;;13.88;8.85;;;14.40;97.40;;;;;;4990799;28;20041;-68
2023/09/22 06:23:27;;;;;;;15.55;8.23;;;14.40;97.50;;;;;;4992945;28;20105;-67
2023/09/22 06:25:59;;;;;;;14.07;8.07;;;14.40;97.30;;;;;;4995335;28;20055;-67
2023/09/22 06:28:25;;;;;;;11.40;7.22;;;14.50;97.30;;;;;;4974139;28;20411;-67
2023/09/22 06:30:52;;;;;;;11.45;7.13;;;14.50;97.00;;;;;;4985948;28;20040;-67
2023/09/22 06:33:18;;;;;;;11.02;7.10;;;14.60;97.00;;;;;;4984557;28;20041;-67
2023/09/22 06:35:44;;;;;;;9.80;6.60;;;14.60;96.60;;;;;;4986630;28;20031;-69
2023/09/22 06:38:10;;;;;;;11.73;6.85;;;14.60;96.70;;;;;;4989222;28;20030;-67
2023/09/22 06:40:37;;;;;;;11.43;6.30;;;14.70;96.20;;;;;;4992613;28;20085;-67
2023/09/22 06:43:04;;;;;;;9.73;5.75;;;14.60;96.20;;;;;;4986691;28;20467;-67
2023/09/22 06:45:32;;;;;;;8.98;5.25;;;14.60;95.70;;;;;;4983906;28;20046;-67
2023/09/22 06:47:59;;;;;;;8.32;4.90;;;14.60;95.90;;;;;;4976654;28;20030;-70
2023/09/22 06:50:25;;;;;;;8.32;4.95;;;14.60;95.80;;;;;;4981804;28;20499;-68
2023/09/22 06:52:50;;;;;;;8.23;5.03;;;14.60;96.00;;;;;;4986288;28;20049;-67
2023/09/22 06:55:16;;;;;;;10.05;6.00;;;14.60;95.80;;;;;;4959822;28;20455;-67
2023/09/22 06:57:42;;;;;;;7.65;5.07;;;14.60;95.50;;;;;;4988746;28;20057;-68
2023/09/22 07:00:24;;;;;;;8.32;4.72;;;14.60;95.00;;;;;;4988326;28;20455;-67
2023/09/22 07:02:49;;;;;;;10.38;5.05;;;14.60;94.70;;;;;;4985785;28;20375;-67
2023/09/22 07:05:20;;;;;;;9.50;5.15;;;14.60;94.60;;;;;;4970921;28;20039;-67
2023/09/22 07:07:47;;;;;;;7.05;4.78;;;14.60;94.60;;;;;;4993734;28;20038;-68
2023/09/22 07:10:13;;;;;;;8.25;5.15;;;14.60;94.30;;;;;;4986850;28;20069;-67
2023/09/22 07:12:39;;;;;;;7.75;4.88;;;14.60;94.40;;;;;;4991561;28;20062;-67
2023/09/22 07:15:06;;;;;;;8.98;4.93;;;14.60;94.50;;;;;;4971730;28;20034;-67
2023/09/22 07:17:32;;;;;;;6.70;3.95;;;14.70;94.10;;;;;;4987907;28;20023;-67
2023/09/22 07:19:58;;;;;;;7.32;4.88;;;14.60;94.10;;;;;;4990979;28;20046;-69
2023/09/22 07:22:24;;;;;;;8.27;5.05;;;14.60;94.30;;;;;;4987795;28;20039;-67
2023/09/22 07:24:52;;;;;;;7.57;4.72;;;14.70;94.60;;;;;;4993829;28;20056;-68
2023/09/22 07:27:18;;;;;;;7.68;4.53;;;14.90;94.40;;;;;;4991424;28;20374;-67
2023/09/22 07:29:43;;;;;;;6.15;4.30;;;14.80;93.70;;;;;;4986305;28;20046;-67
2023/09/22 07:32:09;;;;;;;6.30;3.83;;;14.90;93.60;;;;;;4988595;28;20589;-67
2023/09/22 07:34:34;;;;;;;7.28;4.47;;;15.00;93.40;;;;;;4986985;28;20038;-68
2023/09/22 07:37:00;;;;;;;6.95;4.18;;;15.10;93.60;;;;;;4980728;28;20026;-67
2023/09/22 07:39:26;;;;;;;7.22;4.07;;;15.10;92.70;;;;;;4983169;28;20034;-67
2023/09/22 07:41:51;;;;;;;7.50;3.97;;;15.10;92.80;;;;;;4984352;28;20041;-67
2023/09/22 07:44:21;;;;;;;7.38;3.72;;;15.10;92.50;;;;;;4970126;28;20066;-68
2023/09/22 07:46:47;;;;;;;6.07;3.42;;;15.20;92.40;;;;;;4995331;28;20632;-67
2023/09/22 07:49:13;;;;;;;6.55;3.65;;;15.20;91.90;;;;;;4970797;28;20034;-67
2023/09/22 07:51:38;;;;;;;5.85;2.80;;;15.20;92.00;;;;;;4992728;28;20077;-67
2023/09/22 07:54:04;;;;;;;5.43;3.05;;;15.10;91.50;;;;;;4970836;28;20495;-67
2023/09/22 07:56:30;;;;;;;5.55;3.67;;;15.10;91.60;;;;;;4982200;28;20142;-67
2023/09/22 07:58:57;;;;;;;4.88;3.22;;;15.30;92.20;;;;;;4977945;28;20034;-68
2023/09/22 08:01:24;;;;;;;4.75;3.05;;;15.20;90.70;;;;;;4982376;28;20030;-69
2023/09/22 08:03:50;;;;;;;5.72;3.47;;;15.30;91.40;;;;;;4981534;28;20427;-67
2023/09/22 08:06:16;;;;;;;5.95;3.05;;;15.30;90.80;;;;;;4987754;28;20609;-67
2023/09/22 08:08:41;;;;;;;5.13;3.10;;;15.50;90.70;;;;;;4993781;28;20113;-68
2023/09/22 08:11:06;;;;;;;6.35;3.03;;;15.50;89.30;;;;;;4983629;28;20061;-67
2023/09/22 08:13:33;;;;;;;9.02;3.30;;;15.70;90.30;;;;;;4970908;28;20379;-68
2023/09/22 08:16:00;;;;;;;4.47;2.92;;;16.00;89.70;;;;;;4984346;28;20043;-67
2023/09/22 08:18:26;;;;;;;4.75;3.05;;;16.10;89.30;;;;;;4987619;28;20413;-67
2023/09/22 08:20:51;;;;;;;4.80;2.92;;;16.00;87.70;;;;;;4992371;28;20046;-67
2023/09/22 08:23:17;;;;;;;7.18;3.10;;;15.90;88.30;;;;;;4981510;28;20065;-69
2023/09/22 08:25:46;;;;;;;5.85;3.03;;;15.70;87.90;;;;;;4982732;28;20042;-67
2023/09/22 08:28:13;;;;;;;4.07;2.53;;;15.70;87.30;;;;;;4986891;28;20414;-67
2023/09/22 08:30:39;;;;;;;6.57;2.35;;;15.60;86.80;;;;;;4986249;28;20093;-67
2023/09/22 08:33:05;;;;;;;5.80;2.47;;;15.80;87.40;;;;;;4977471;28;20027;-67
2023/09/22 08:35:30;;;;;;;6.68;2.30;;;15.70;86.30;;;;;;4991416;28;20041;-67
2023/09/22 08:37:56;;;;;;;3.85;2.20;;;15.70;86.40;;;;;;4978964;28;20045;-68
2023/09/22 08:40:21;;;;;;;5.28;2.03;;;16.00;86.30;;;;;;4980508;28;20109;-66
2023/09/22 08:42:48;;;;;;;3.75;2.15;;;16.10;85.90;;;;;;4987931;28;20074;-68
2023/09/22 08:45:14;;;;;;;3.80;2.15;;;16.30;85.60;;;;;;4991804;28;20065;-67
2023/09/22 08:47:40;;;;;;;4.30;2.20;;;16.10;84.60;;;;;;4990427;28;20097;-66
2023/09/22 08:50:09;;;;;;;4.03;2.30;;;16.40;84.50;;;;;;4987196;28;20386;-67
2023/09/22 08:52:35;;;;;;;3.72;2.28;;;16.50;84.90;;;;;;4988033;28;20022;-66
2023/09/22 08:55:03;;;;;;;5.70;2.47;;;16.40;84.00;;;;;;4990795;28;20030;-66
2023/09/22 08:57:29;;;;;;;3.85;2.38;;;16.30;84.50;;;;;;4999335;28;20486;-67
2023/09/22 08:59:56;;;;;;;4.63;2.45;;;16.50;84.10;;;;;;4997570;28;20047;-66
2023/09/22 09:02:22;;;;;;;5.15;2.40;;;16.50;84.50;;;;;;4997038;28;20565;-66
2023/09/22 09:04:47;;;;;;;4.40;1.90;;;16.40;84.60;;;;;;4988979;28;20030;-67
2023/09/22 09:07:16;;;;;;;5.07;2.03;;;16.20;84.90;;;;;;4982616;28;20038;-66
2023/09/22 09:09:43;;;;;;;4.47;2.03;;;16.20;84.90;;;;;;4994439;28;20023;-67
2023/09/22 09:12:09;;;;;;;3.13;1.70;;;16.20;84.60;;;;;;4994097;28;20034;-66
2023/09/22 09:14:42;;;;;;;3.47;1.70;;;16.30;85.70;;;;;;4972320;28;20828;-66
2023/09/22 09:17:22;;;;;;;3.78;1.95;;;16.30;84.40;;;;;;4988957;28;20116;-67
2023/09/22 09:19:53;;;;;;;3.40;1.50;;;16.20;84.40;;;;;;4992894;28;20026;-68
2023/09/22 09:22:18;;;;;;;;;;;16.30;84.10;;;;;;4988482;28;20161;-66
2023/09/22 09:24:44;;;;;;;4.60;1.70;;;16.30;85.40;;;;;;4996184;28;20530;-67
2023/09/22 09:27:20;;;;;;;3.80;1.63;;;16.20;84.20;;;;;;4993283;28;20480;-67
2023/09/22 09:29:46;;;;;;;2.92;1.25;;;16.30;84.70;;;;;;4981942;28;20038;-68
2023/09/22 09:32:31;;;;;;;2.63;1.40;;;16.20;84.30;;;;;;4991117;28;20026;-68
2023/09/22 09:34:57;;;;;;;4.75;1.35;;;16.10;84.50;;;;;;4990526;28;20042;-67
2023/09/22 09:37:23;;;;;;;3.17;1.60;;;16.10;84.80;;;;;;4997836;28;20038;-67
2023/09/22 09:39:52;;;;;;;3.53;1.60;;;16.10;84.80;;;;;;4983472;28;20027;-67
2023/09/22 09:42:19;;;;;;;4.47;1.55;;;16.20;85.40;;;;;;4984109;28;20399;-67
2023/09/22 09:44:50;;;;;;;6.30;2.10;;;16.30;84.50;;;;;;4981296;28;20080;-67
2023/09/22 09:47:24;;;;;;;5.63;1.60;;;16.00;84.80;;;;;;4982891;28;20030;-67
2023/09/22 09:49:55;;;;;;;3.15;1.63;;;16.20;85.30;;;;;;4992927;28;20034;-67
2023/09/22 09:52:37;;;;;;;5.00;1.85;;;16.50;84.70;;;;;;4982693;28;20389;-67
2023/09/22 09:55:12;;;;;;;3.15;1.80;;;16.60;84.20;;;;;;4991450;28;20038;-67
2023/09/22 09:57:39;;;;;;;3.05;1.70;;;16.90;83.70;;;;;;4968184;28;20117;-68
2023/09/22 10:00:19;;;;;;;5.47;1.73;;;17.00;83.20;;;;;;4987791;28;20027;-67
2023/09/22 10:02:49;;;;;;;3.78;1.55;;;17.40;82.70;;;;;;4981501;28;20069;-67
2023/09/22 10:05:19;;;;;;;4.38;1.48;;;17.50;80.40;;;;;;4980085;28;20034;-67
2023/09/22 10:07:46;;;;;;;5.20;2.22;;;17.60;82.40;;;;;;4991882;28;20042;-70
2023/09/22 10:10:13;;;;;;;4.20;1.90;;;17.40;80.80;;;;;;4993933;28;20061;-67
2023/09/22 10:12:40;;;;;;;3.55;1.55;;;17.40;82.00;;;;;;4983986;28;20058;-67
2023/09/22 10:15:07;;;;;;;5.75;1.98;;;17.70;80.60;;;;;;4987880;28;20517;-68
2023/09/22 10:17:32;;;;;;;3.83;1.92;;;17.70;80.00;;;;;;4979286;28;20035;-68
2023/09/22 10:20:02;;;;;;;4.28;1.60;;;18.00;79.10;;;;;;4994376;28;20094;-67
2023/09/22 10:22:29;;;;;;;2.53;1.50;;;18.10;78.60;;;;;;4978635;28;20026;-68
2023/09/22 10:25:12;;;;;;;4.18;1.85;;;18.20;76.70;;;;;;4998331;28;20050;-67
2023/09/22 10:27:58;;;;;;;4.53;2.05;;;18.40;77.00;;;;;;4975214;28;20053;-69
2023/09/22 10:30:44;;;;;;;4.00;1.40;;;18.00;76.20;;;;;;4990014;28;20030;-67
2023/09/22 10:33:16;;;;;;;3.33;1.70;;;18.00;76.70;;;;;;4983652;28;20034;-67
2023/09/22 10:35:46;;;;;;;3.45;1.70;;;18.20;75.30;;;;;;4986696;28;20062;-67
2023/09/22 10:38:12;;;;;;;3.05;1.73;;;18.30;75.80;;;;;;4992354;28;20033;-67
2023/09/22 10:40:40;;;;;;;2.47;1.42;;;18.60;75.10;;;;;;4988158;28;20439;-68
2023/09/22 10:43:06;;;;;;;3.78;1.90;;;18.90;73.40;;;;;;4987382;28;20030;-68
2023/09/22 10:45:31;;;;;;;4.28;1.50;;;19.30;73.20;;;;;;4991920;28;20434;-67
2023/09/22 10:47:58;;;;;;;3.50;1.50;;;19.50;71.90;;;;;;4987060;28;20034;-69
2023/09/22 10:50:31;;;;;;;1.88;1.15;;;19.50;70.10;;;;;;4975136;28;20027;-67
2023/09/22 10:52:58;;;;;;;4.07;1.33;;;19.40;71.80;;;;;;4988769;28;20027;-68
2023/09/22 10:55:37;;;;;;;2.75;1.17;;;20.10;73.00;;;;;;4986673;28;20101;-67
2023/09/22 10:58:10;;;;;;;4.40;1.30;;;20.20;70.70;;;;;;4987858;28;20545;-67
2023/09/22 11:00:43;;;;;;;4.00;1.20;;;19.90;70.20;;;;;;5002477;28;20087;-69
2023/09/22 11:03:16;;;;;;;4.25;0.93;;;19.10;70.20;;;;;;4980467;28;20448;-67
2023/09/22 11:05:43;;;;;;;2.67;1.00;;;19.10;70.80;;;;;;4994934;28;20022;-68
2023/09/22 11:08:18;;;;;;;1.63;1.10;;;19.10;72.90;;;;;;4974471;28;20034;-67
2023/09/22 11:10:48;;;;;;;3.08;1.10;;;18.80;73.00;;;;;;4987317;28;20041;-69
2023/09/22 11:13:15;;;;;;;3.50;1.40;;;18.40;73.40;;;;;;4987577;28;20033;-68
2023/09/22 11:15:48;;;;;;;3.42;1.13;;;18.50;75.20;;;;;;4987265;28;20093;-67
2023/09/22 11:18:28;;;;;;;3.92;1.50;;;18.50;74.50;;;;;;4986595;28;20117;-67
2023/09/22 11:21:02;;;;;;;2.47;1.38;;;18.40;75.70;;;;;;4991719;28;20023;-68
2023/09/22 11:23:28;;;;;;;3.30;1.58;;;18.60;74.80;;;;;;4990104;28;20049;-66
2023/09/22 11:26:05;;;;;;;3.33;1.50;;;18.70;75.40;;;;;;4994722;28;20058;-67
2023/09/22 11:28:31;;;;;;;2.65;1.27;;;18.80;74.00;;;;;;4990550;28;20511;-67
2023/09/22 11:31:08;;;;;;;2.03;1.10;;;18.80;74.60;;;;;;4988895;28;20026;-68
2023/09/22 11:33:36;;;;;;;3.72;1.38;;;19.00;74.90;;;;;;4986280;28;20113;-67
2023/09/22 11:36:03;;;;;;;6.00;1.40;;;19.10;74.50;;;;;;4991454;28;20535;-67
2023/09/22 11:38:31;;;;;;;2.65;1.30;;;19.00;75.00;;;;;;4982604;28;20026;-67
2023/09/22 11:41:10;;;;;;;2.45;1.10;;;18.60;73.50;;;;;;4982478;28;20026;-69
2023/09/22 11:43:40;;;;;;;3.70;0.98;;;19.60;72.50;;;;;;4989584;28;20379;-67
2023/09/22 11:46:22;;;;;;;2.90;0.90;;;20.10;72.10;;;;;;4991193;28;20382;-68
2023/09/22 11:48:52;;;;;;;4.47;0.93;;;20.10;68.60;;;;;;4987702;28;20297;-68
2023/09/22 11:51:19;;;;;;;2.67;0.83;;;20.40;67.90;;;;;;4985739;28;20104;-68
2023/09/22 11:53:45;;;;;;;3.20;0.90;;;20.20;66.80;;;;;;4987897;28;20031;-67
2023/09/22 11:56:11;;;;;;;2.55;0.90;;;20.00;67.30;;;;;;4984095;28;20157;-68
2023/09/22 11:58:38;;;;;;;4.13;0.85;;;19.60;69.10;;;;;;4973566;28;20033;-67
2023/09/22 12:01:04;;;;;;;2.03;0.98;;;19.10;70.30;;;;;;4980542;28;20041;-67
2023/09/22 12:03:29;;;;;;;3.58;0.95;;;18.80;71.70;;;;;;4983923;28;20030;-67
2023/09/22 12:05:55;;;;;;;1.75;0.82;;;18.60;71.40;;;;;;4989567;28;20093;-68
2023/09/22 12:08:20;;;;;;;4.50;1.15;;;19.20;71.10;;;;;;4991860;28;20038;-67
2023/09/22 12:10:46;;;;;;;1.45;0.73;;;19.50;70.00;;;;;;4991690;28;20073;-67
2023/09/22 12:13:11;;;;;;;3.78;1.02;;;19.00;70.10;;;;;;4994157;28;20510;-67
2023/09/22 12:15:37;;;;;;;1.45;0.88;;;19.30;71.20;;;;;;4990920;28;20101;-68
2023/09/22 12:18:04;;;;;;;6.13;1.15;;;20.00;66.60;;;;;;4949354;28;20054;-68
2023/09/22 12:20:30;;;;;;;2.05;0.65;;;20.60;68.30;;;;;;4992866;28;20029;-68
2023/09/22 12:22:56;;;;;;;1.48;0.52;;;20.50;67.70;;;;;;4993235;28;20410;-67
2023/09/22 12:25:21;;;;;;;1.02;0.70;;;20.60;65.10;;;;;;4989937;28;20057;-68
2023/09/22 12:27:47;;;;;;;2.33;0.73;;;21.10;64.40;;;;;;4991598;28;20405;-67
2023/09/22 12:30:14;;;;;;;1.00;0.50;;;21.20;65.40;;;;;;4990770;28;20144;-68
2023/09/22 12:32:39;;;;;;;1.40;0.50;;;20.80;63.10;;;;;;4970279;28;20030;-68
2023/09/22 12:35:05;;;;;;;3.22;0.77;;;20.50;65.00;;;;;;4993271;28;20038;-67
2023/09/22 12:37:33;;;;;;;1.05;0.55;;;20.10;66.10;;;;;;4992135;28;20120;-67
2023/09/22 12:40:00;;;;;;;1.92;0.60;;;20.20;65.60;;;;;;4990617;28;20034;-68